TAF and METAR

Could not understand the following METAR

DATM 201400Z 11012KT CAVOK 41/// Q1012

TAF for Bordj Mokhtar Airport

TAF DATM 201400Z 2015/2024 12010KT CAVOK
Report created 20. sep 16:00

between 20. sep 17:00 - 20. sep 02:00

wind 10 knots from ESE (120°) Clear sky
Bordj Mokhtar Airport in Algeria at 396m

Latest 5 airports